Time;durP1;ratioP1;P1;durP2;ratioP2;P2;SDS_P1;SDS_P2;PMS_P1;PMS_P2;Temp;Humidity;BMP_temperature;BMP_pressure;BME280_temperature;BME280_humidity;BME280_pressure;Samples;Min_cycle;Max_cycle;Signal;HPM_P1;HPM_P2
2020/12/16 00:00:32;;;;;;;84.70;33.60;;;;;;;2.80;100.00;95467.88;10532595;28;20581;-77
2020/12/16 00:05:32;;;;;;;71.93;30.70;;;;;;;2.89;100.00;95469.31;10531827;28;20289;-76
2020/12/16 00:10:33;;;;;;;82.53;34.37;;;;;;;2.83;100.00;95472.78;10531222;28;20028;-77
2020/12/16 00:15:33;;;;;;;77.47;33.27;;;;;;;2.83;100.00;95474.63;10515872;28;20797;-76
2020/12/16 00:20:33;;;;;;;68.57;30.83;;;;;;;2.71;100.00;95475.25;10502989;28;20301;-76
2020/12/16 00:25:34;;;;;;;62.13;25.50;;;;;;;2.67;100.00;95468.72;10532568;28;20365;-76
2020/12/16 00:30:34;;;;;;;57.03;23.37;;;;;;;2.44;100.00;95468.31;10532271;28;20035;-76
2020/12/16 00:35:35;;;;;;;55.85;21.15;;;;;;;2.31;100.00;95477.88;10532333;28;20036;-76
2020/12/16 00:40:35;;;;;;;59.10;25.15;;;;;;;2.31;100.00;95472.56;10531334;28;20498;-75
2020/12/16 00:45:35;;;;;;;55.40;20.53;;;;;;;2.23;100.00;95467.47;10513449;28;20035;-75
2020/12/16 00:50:36;;;;;;;49.45;19.20;;;;;;;2.20;100.00;95460.72;10531655;28;20051;-75
2020/12/16 00:55:36;;;;;;;42.90;18.23;;;;;;;2.21;100.00;95459.72;10531289;28;20085;-75
2020/12/16 01:00:37;;;;;;;42.45;18.27;;;;;;;2.10;100.00;95457.66;10533356;28;20652;-78
2020/12/16 01:05:37;;;;;;;48.78;18.00;;;;;;;1.96;100.00;95456.81;10533565;28;20043;-76
2020/12/16 01:10:37;;;;;;;42.10;16.95;;;;;;;1.97;100.00;95461.13;10531440;28;20044;-76
2020/12/16 01:15:38;;;;;;;49.37;18.90;;;;;;;2.09;100.00;95460.53;10512964;28;20044;-77
2020/12/16 01:20:38;;;;;;;44.65;18.05;;;;;;;2.15;100.00;95460.53;10531141;28;20124;-76
2020/12/16 01:25:39;;;;;;;44.97;16.77;;;;;;;1.92;100.00;95460.09;10513151;28;20043;-77
2020/12/16 01:30:39;;;;;;;46.90;18.02;;;;;;;1.77;100.00;95455.75;10511686;28;20055;-77
2020/12/16 01:35:39;;;;;;;41.63;15.63;;;;;;;1.58;100.00;95454.69;10529970;28;20115;-77
2020/12/16 01:40:40;;;;;;;38.17;14.65;;;;;;;1.54;100.00;95451.63;10529248;28;20286;-78
2020/12/16 01:45:40;;;;;;;34.53;15.18;;;;;;;1.52;100.00;95444.88;10529937;28;20028;-77
2020/12/16 01:50:41;;;;;;;25.55;12.07;;;;;;;1.59;100.00;95447.56;10529845;28;20425;-77
2020/12/16 01:55:43;;;;;;;36.63;14.30;;;;;;;1.50;100.00;95447.72;10529552;28;20070;-77
2020/12/16 02:00:46;;;;;;;35.53;13.73;;;;;;;1.52;100.00;95452.81;10529679;28;20282;-77
2020/12/16 02:05:50;;;;;;;37.63;14.30;;;;;;;1.64;100.00;95450.44;10529562;28;20032;-77
2020/12/16 02:10:50;;;;;;;40.50;16.10;;;;;;;1.70;100.00;95449.63;10529629;28;20040;-78
2020/12/16 02:15:51;;;;;;;30.97;15.03;;;;;;;1.79;100.00;95440.47;10529663;28;20048;-78
2020/12/16 02:20:51;;;;;;;51.10;19.27;;;;;;;1.93;100.00;95451.13;10529158;28;20282;-77
2020/12/16 02:25:52;;;;;;;44.78;19.13;;;;;;;2.02;100.00;95449.91;10528944;28;20825;-77
2020/12/16 02:30:53;;;;;;;59.92;18.60;;;;;;;2.08;100.00;95453.56;10510796;28;20036;-77
2020/12/16 02:35:53;;;;;;;59.80;19.77;;;;;;;2.25;100.00;95444.22;10528739;28;20040;-77
2020/12/16 02:40:54;;;;;;;54.20;21.25;;;;;;;2.22;100.00;95447.28;10526447;28;20063;-77
2020/12/16 02:45:54;;;;;;;57.78;19.00;;;;;;;2.38;100.00;95448.72;10527576;28;20101;-77
2020/12/16 02:50:55;;;;;;;54.88;19.77;;;;;;;2.43;100.00;95450.75;10510252;28;20541;-77
2020/12/16 02:55:55;;;;;;;71.72;20.30;;;;;;;2.34;100.00;95450.94;10528312;28;20028;-77
2020/12/16 03:00:56;;;;;;;66.33;18.50;;;;;;;2.38;100.00;95454.81;10528037;28;20402;-77
2020/12/16 03:05:56;;;;;;;50.63;16.23;;;;;;;2.36;100.00;95456.06;10533792;28;20278;-77
2020/12/16 03:10:57;;;;;;;38.85;13.82;;;;;;;2.34;100.00;95447.50;10535153;28;20123;-77
2020/12/16 03:15:57;;;;;;;37.55;13.65;;;;;;;2.29;100.00;95456.06;10535233;28;20166;-77
2020/12/16 03:20:57;;;;;;;39.80;13.93;;;;;;;2.32;100.00;95454.84;10535277;28;20028;-77
2020/12/16 03:25:58;;;;;;;44.53;14.60;;;;;;;2.32;100.00;95455.66;10536898;28;20294;-77
2020/12/16 03:30:58;;;;;;;41.70;12.63;;;;;;;2.29;100.00;95464.03;10535631;28;20139;-78
2020/12/16 03:35:59;;;;;;;38.58;11.95;;;;;;;2.21;100.00;95466.88;10535289;28;20377;-78
2020/12/16 03:41:00;;;;;;;39.38;12.68;;;;;;;2.19;100.00;95471.53;10533439;28;20024;-78
2020/12/16 03:46:00;;;;;;;39.90;12.93;;;;;;;2.18;100.00;95467.28;10532952;28;20028;-78
2020/12/16 03:51:06;;;;;;;41.63;12.47;;;;;;;2.04;100.00;95469.09;10534094;28;20796;-78
2020/12/16 03:56:09;;;;;;;30.42;10.73;;;;;;;1.82;100.00;95477.19;10535699;28;20290;-78
2020/12/16 04:01:10;;;;;;;35.78;11.65;;;;;;;1.65;100.00;95475.91;10531771;28;20028;-75
2020/12/16 04:06:12;;;;;;;26.85;9.63;;;;;;;1.69;100.00;95477.97;10531905;28;20031;-76
2020/12/16 04:11:18;;;;;;;22.08;9.32;;;;;;;1.63;100.00;95477.94;10531204;28;20696;-76
2020/12/16 04:16:21;;;;;;;34.50;12.02;;;;;;;1.56;100.00;95485.06;10530488;28;20044;-75
2020/12/16 04:21:21;;;;;;;34.40;13.98;;;;;;;1.54;100.00;95485.25;10531599;28;20075;-75
2020/12/16 04:26:25;;;;;;;35.63;11.40;;;;;;;1.52;100.00;95496.03;10532158;28;20111;-76
2020/12/16 04:31:25;;;;;;;38.90;12.95;;;;;;;1.54;100.00;95498.50;10531436;28;20111;-76
2020/12/16 04:36:26;;;;;;;31.30;11.90;;;;;;;1.56;100.00;95503.59;10531723;28;20410;-75
2020/12/16 04:41:26;;;;;;;32.60;13.52;;;;;;;1.57;100.00;95511.34;10513162;28;20274;-75
2020/12/16 04:46:29;;;;;;;33.25;11.95;;;;;;;1.83;100.00;95521.22;10530665;28;20055;-75
2020/12/16 04:51:33;;;;;;;33.05;12.15;;;;;;;1.91;100.00;95520.22;10530845;28;20059;-75
2020/12/16 04:56:35;;;;;;;24.33;9.55;;;;;;;1.79;100.00;95525.28;10530689;28;20028;-75
2020/12/16 05:01:40;;;;;;;26.90;10.38;;;;;;;1.75;100.00;95524.06;10530390;28;20038;-76
2020/12/16 05:06:44;;;;;;;30.90;9.88;;;;;;;1.67;100.00;95525.03;10512025;28;20070;-75
2020/12/16 05:11:49;;;;;;;20.25;7.88;;;;;;;1.56;100.00;95536.19;10530108;28;20036;-76
2020/12/16 05:16:57;;;;;;;32.50;9.90;;;;;;;1.45;100.00;95537.59;10511912;28;20050;-75
2020/12/16 05:22:13;;;;;;;29.63;9.98;;;;;;;1.44;100.00;95543.88;10525212;28;20029;-76
2020/12/16 05:27:35;;;;;;;26.92;9.38;;;;;;;1.64;100.00;95543.97;10486526;28;20024;-76
2020/12/16 05:32:36;;;;;;;18.27;7.70;;;;;;;1.81;100.00;95554.25;10486792;28;20041;-76
2020/12/16 05:37:37;;;;;;;25.17;9.02;;;;;;;2.04;100.00;95554.75;10487548;28;20140;-73
2020/12/16 05:42:38;;;;;;;14.98;6.72;;;;;;;1.96;100.00;95557.56;10491338;28;20491;-71
2020/12/16 05:47:42;;;;;;;19.40;7.38;;;;;;;1.81;100.00;95555.06;10486290;28;20032;-72
2020/12/16 05:52:43;;;;;;;24.73;8.48;;;;;;;1.99;100.00;95564.31;10484826;28;20036;-73
2020/12/16 05:57:44;;;;;;;14.68;7.25;;;;;;;2.19;100.00;95567.84;10485322;28;20025;-72
2020/12/16 06:02:45;;;;;;;15.43;6.93;;;;;;;2.17;100.00;95569.06;10486155;28;20032;-71
2020/12/16 06:07:48;;;;;;;17.25;8.32;;;;;;;2.01;100.00;95573.69;10483478;28;20037;-72
2020/12/16 06:12:50;;;;;;;19.20;8.32;;;;;;;2.11;100.00;95575.97;10487272;28;20399;-72
2020/12/16 06:17:50;;;;;;;18.65;7.10;;;;;;;2.21;100.00;95580.91;10487439;28;20780;-72
2020/12/16 06:22:51;;;;;;;17.03;7.07;;;;;;;2.29;100.00;95586.03;10487142;28;20036;-73
2020/12/16 06:27:52;;;;;;;19.10;7.43;;;;;;;2.44;100.00;95596.44;10469115;28;20325;-73
2020/12/16 06:33:14;;;;;;;18.30;7.75;;;;;;;2.60;100.00;95594.47;10520051;28;20487;-73
2020/12/16 06:38:22;;;;;;;14.15;8.25;;;;;;;2.50;100.00;95594.88;10487955;28;20036;-73
2020/12/16 06:43:32;;;;;;;13.60;6.82;;;;;;;2.39;100.00;95593.59;10494847;28;20021;-72
2020/12/16 06:48:38;;;;;;;16.02;6.47;;;;;;;2.33;100.00;95597.03;10494559;28;20032;-72
2020/12/16 06:53:38;;;;;;;13.82;6.10;;;;;;;2.21;100.00;95602.13;10494333;28;20051;-72
2020/12/16 06:58:39;;;;;;;14.10;5.80;;;;;;;2.13;100.00;95599.63;10476294;28;20037;-72
2020/12/16 07:03:40;;;;;;;13.40;6.80;;;;;;;2.27;100.00;95603.16;10494314;28;20290;-72
2020/12/16 07:08:41;;;;;;;12.15;6.93;;;;;;;2.32;100.00;95606.03;10493545;28;20043;-72
2020/12/16 07:13:41;;;;;;;17.02;6.45;;;;;;;2.38;100.00;95606.03;10493290;28;20037;-72
2020/12/16 07:18:45;;;;;;;8.98;4.82;;;;;;;2.43;100.00;95610.75;10493189;28;20052;-72
2020/12/16 07:23:51;;;;;;;9.32;5.78;;;;;;;2.16;100.00;95600.06;10494658;28;20035;-72
2020/12/16 07:28:53;;;;;;;9.10;5.45;;;;;;;2.17;100.00;95600.88;10506540;28;20044;-72
2020/12/16 07:33:54;;;;;;;14.07;5.93;;;;;;;2.38;100.00;95597.25;10513143;28;20070;-72
2020/12/16 07:38:55;;;;;;;12.07;6.47;;;;;;;2.52;100.00;95604.22;10498947;28;20479;-73
2020/12/16 07:44:01;;;;;;;12.60;7.43;;;;;;;2.42;100.00;95600.34;10524791;28;20040;-72
2020/12/16 07:49:01;;;;;;;17.10;7.22;;;;;;;2.62;100.00;95603.03;10533665;28;20098;-73
2020/12/16 07:54:04;;;;;;;13.07;6.87;;;;;;;2.57;100.00;95611.59;10533785;28;20090;-73
2020/12/16 07:59:13;;;;;;;14.60;7.75;;;;;;;2.36;100.00;95613.38;10493304;28;20348;-73
2020/12/16 08:04:16;;;;;;;19.13;8.45;;;;;;;2.21;100.00;95616.19;10503582;28;20411;-72
2020/12/16 08:09:21;;;;;;;23.80;9.40;;;;;;;2.02;100.00;95619.56;10512455;28;20388;-72
2020/12/16 08:14:23;;;;;;;20.35;10.10;;;;;;;2.17;100.00;95622.09;10529548;28;20090;-72
2020/12/16 08:19:23;;;;;;;20.58;10.30;;;;;;;2.55;100.00;95625.06;10525906;28;20044;-73
2020/12/16 08:24:24;;;;;;;17.58;8.57;;;;;;;2.42;100.00;95626.88;10527811;28;20037;-72
2020/12/16 08:29:26;;;;;;;20.80;9.25;;;;;;;2.35;100.00;95632.16;10529952;28;20036;-73
2020/12/16 08:34:27;;;;;;;19.83;9.88;;;;;;;2.34;100.00;95625.22;10511636;28;20048;-73
2020/12/16 08:39:28;;;;;;;14.75;7.40;;;;;;;2.63;100.00;95621.41;10522266;28;20035;-73
2020/12/16 08:44:29;;;;;;;14.32;6.65;;;;;;;2.81;100.00;95620.03;10524785;28;20051;-73
2020/12/16 08:49:31;;;;;;;22.10;8.70;;;;;;;2.85;100.00;95619.41;10531971;28;20040;-72
2020/12/16 08:54:32;;;;;;;20.35;8.27;;;;;;;3.09;100.00;95614.50;10531660;28;20043;-73
2020/12/16 08:59:33;;;;;;;15.15;7.70;;;;;;;3.24;100.00;95612.47;10531490;28;20035;-73
2020/12/16 09:04:40;;;;;;;16.63;9.38;;;;;;;3.40;100.00;95602.44;10530095;28;20039;-73
2020/12/16 09:09:48;;;;;;;21.95;9.13;;;;;;;3.29;100.00;95597.75;10536562;28;20119;-73
2020/12/16 09:14:59;;;;;;;17.38;9.80;;;;;;;3.15;100.00;95592.44;10530693;28;20051;-73
2020/12/16 09:19:59;;;;;;;23.35;9.73;;;;;;;3.08;100.00;95594.28;10530854;28;20036;-73
2020/12/16 09:25:00;;;;;;;24.23;10.73;;;;;;;3.41;100.00;95596.09;10530473;28;20059;-73
2020/12/16 09:30:01;;;;;;;26.98;10.98;;;;;;;3.54;100.00;95597.91;10529814;28;20036;-73
2020/12/16 09:35:09;;;;;;;17.80;8.40;;;;;;;3.69;100.00;95576.44;10529765;28;20024;-73
2020/12/16 09:40:12;;;;;;;18.67;8.43;;;;;;;3.45;100.00;95576.06;10530005;28;20040;-73
2020/12/16 09:45:20;;;;;;;20.00;9.23;;;;;;;3.57;100.00;95576.22;10529899;28;20380;-74
2020/12/16 09:50:30;;;;;;;28.83;12.10;;;;;;;3.68;100.00;95569.47;10538853;28;20024;-72
2020/12/16 09:55:43;;;;;;;21.98;10.73;;;;;;;3.97;100.00;95570.00;10511368;28;20077;-72
2020/12/16 10:00:46;;;;;;;20.30;9.68;;;;;;;4.02;100.00;95568.34;10529293;28;20025;-72
2020/12/16 10:05:48;;;;;;;17.65;9.95;;;;;;;4.03;100.00;95553.19;10529521;28;20040;-72
2020/12/16 10:10:49;;;;;;;17.98;9.88;;;;;;;4.08;100.00;95559.50;10528815;28;20449;-73
2020/12/16 10:15:50;;;;;;;18.00;10.50;;;;;;;4.11;100.00;95552.94;10518996;28;20044;-73
2020/12/16 10:20:52;;;;;;;18.42;10.23;;;;;;;4.23;100.00;95555.75;10537321;28;20094;-73
2020/12/16 10:25:53;;;;;;;18.27;10.18;;;;;;;4.00;100.00;95546.44;10532699;28;20036;-73
2020/12/16 10:30:53;;;;;;;24.10;11.13;;;;;;;4.03;100.00;95545.19;10509507;28;20851;-73
2020/12/16 10:35:54;;;;;;;21.08;10.20;;;;;;;3.89;100.00;95539.97;10518239;28;20120;-73
2020/12/16 10:40:55;;;;;;;23.80;11.07;;;;;;;3.98;100.00;95540.53;10512659;28;20028;-72
2020/12/16 10:45:56;;;;;;;24.83;12.50;;;;;;;3.95;100.00;95532.97;10530324;28;20819;-73
2020/12/16 10:50:57;;;;;;;26.20;12.82;;;;;;;4.32;100.00;95537.69;10515433;28;20681;-72
2020/12/16 10:55:58;;;;;;;27.42;13.20;;;;;;;4.20;100.00;95522.41;10494079;28;20045;-73
2020/12/16 11:00:59;;;;;;;27.13;13.63;;;;;;;4.23;100.00;95529.97;10509508;28;20030;-73
2020/12/16 11:06:00;;;;;;;29.92;13.55;;;;;;;4.03;100.00;95522.09;10532691;28;20036;-73
2020/12/16 11:11:03;;;;;;;34.95;16.95;;;;;;;3.96;100.00;95512.50;10508934;28;20177;-73
2020/12/16 11:16:03;;;;;;;30.80;15.70;;;;;;;3.65;100.00;95522.84;10525618;28;20047;-72
2020/12/16 11:21:04;;;;;;;42.95;15.98;;;;;;;3.73;100.00;95516.50;10493417;28;20035;-72
2020/12/16 11:26:07;;;;;;;32.80;16.58;;;;;;;3.67;100.00;95512.84;10525676;28;20036;-72
2020/12/16 11:31:09;;;;;;;50.00;16.35;;;;;;;3.75;100.00;95511.78;10534311;28;20032;-72
2020/12/16 11:36:10;;;;;;;38.00;18.17;;;;;;;3.72;100.00;95505.03;10534714;28;20122;-72
2020/12/16 11:41:10;;;;;;;38.53;19.17;;;;;;;3.61;100.00;95502.22;10500826;28;20050;-73
2020/12/16 11:46:11;;;;;;;44.25;22.50;;;;;;;3.51;100.00;95508.78;10492142;28;20029;-72
2020/12/16 11:51:11;;;;;;;35.97;19.33;;;;;;;3.47;100.00;95504.13;10500872;28;20032;-73
2020/12/16 11:56:12;;;;;;;51.25;21.85;;;;;;;3.66;100.00;95507.75;10525782;28;20036;-73
2020/12/16 12:01:16;;;;;;;43.43;20.97;;;;;;;3.75;100.00;95504.63;10533118;28;20110;-73
2020/12/16 12:06:17;;;;;;;47.88;23.67;;;;;;;3.64;100.00;95507.91;10533327;28;20340;-73
2020/12/16 12:11:18;;;;;;;47.58;23.05;;;;;;;3.63;100.00;95501.00;10533061;28;20578;-72
2020/12/16 12:16:18;;;;;;;38.85;20.23;;;;;;;3.59;100.00;95505.91;10532495;28;20148;-71
2020/12/16 12:21:19;;;;;;;43.72;22.35;;;;;;;3.78;100.00;95492.72;10521651;28;20604;-72
2020/12/16 12:26:19;;;;;;;53.70;21.85;;;;;;;3.84;100.00;95499.88;10503368;28;20033;-72
2020/12/16 12:31:20;;;;;;;45.13;21.60;;;;;;;3.83;100.00;95495.59;10516410;28;20024;-73
2020/12/16 12:36:21;;;;;;;50.23;21.60;;;;;;;3.84;100.00;95499.06;10503784;28;20032;-73
2020/12/16 12:41:21;;;;;;;41.60;20.73;;;;;;;3.99;100.00;95499.63;10489912;28;20293;-73
2020/12/16 12:46:22;;;;;;;44.30;21.90;;;;;;;3.99;100.00;95498.78;10490209;28;20025;-73
2020/12/16 12:51:23;;;;;;;45.05;22.55;;;;;;;4.20;100.00;95493.16;10489224;28;20423;-73
2020/12/16 12:56:25;;;;;;;46.92;21.70;;;;;;;4.39;100.00;95498.56;10489456;28;20652;-73
2020/12/16 13:01:25;;;;;;;43.08;21.65;;;;;;;4.56;100.00;95489.03;10489431;28;20107;-73
2020/12/16 13:06:26;;;;;;;46.33;20.92;;;;;;;4.64;100.00;95498.56;10489309;28;20047;-73
2020/12/16 13:11:26;;;;;;;43.50;20.50;;;;;;;4.39;100.00;95502.00;10488973;28;20508;-73
2020/12/16 13:16:27;;;;;;;45.10;19.75;;;;;;;4.10;100.00;95500.75;10488319;28;21026;-73
2020/12/16 13:21:28;;;;;;;44.70;21.00;;;;;;;3.94;100.00;95510.06;10487719;28;20060;-72
2020/12/16 13:26:28;;;;;;;51.10;24.25;;;;;;;3.71;100.00;95510.56;10488536;28;20108;-73
2020/12/16 13:31:29;;;;;;;46.78;24.15;;;;;;;3.92;100.00;95510.28;10488245;28;20045;-72
2020/12/16 13:36:30;;;;;;;52.20;23.98;;;;;;;3.77;100.00;95515.06;10487572;28;20039;-72
2020/12/16 13:41:30;;;;;;;54.17;25.27;;;;;;;3.75;100.00;95525.06;10486966;28;20493;-72
2020/12/16 13:46:32;;;;;;;47.17;23.90;;;;;;;3.58;100.00;95522.06;10487038;28;20036;-72
2020/12/16 13:51:32;;;;;;;45.28;21.98;;;;;;;3.62;100.00;95517.97;10486946;28;20033;-72
2020/12/16 13:56:35;;;;;;;45.42;21.83;;;;;;;3.74;100.00;95510.97;10487183;28;20036;-72
2020/12/16 14:01:36;;;;;;;43.17;22.08;;;;;;;3.72;100.00;95510.34;10469975;28;20847;-71
2020/12/16 14:06:36;;;;;;;48.92;22.33;;;;;;;3.74;100.00;95515.44;10502938;28;20127;-71
2020/12/16 14:11:37;;;;;;;56.33;26.02;;;;;;;3.91;100.00;95513.97;10501969;28;20487;-72
2020/12/16 14:16:39;;;;;;;55.85;25.63;;;;;;;4.00;100.00;95521.69;10517397;28;20048;-72
2020/12/16 14:21:39;;;;;;;45.55;22.70;;;;;;;4.10;100.00;95524.69;10505507;28;20098;-72
2020/12/16 14:26:41;;;;;;;47.13;21.73;;;;;;;4.11;100.00;95519.16;10498756;28;20105;-73
2020/12/16 14:31:41;;;;;;;47.60;23.92;;;;;;;4.13;100.00;95518.16;10497168;28;20291;-72
2020/12/16 14:36:47;;;;;;;58.10;21.83;;;;;;;4.11;100.00;95524.47;10494311;28;20040;-72
2020/12/16 14:41:56;;;;;;;48.40;22.33;;;;;;;4.18;100.00;95521.78;10495235;28;20283;-72
2020/12/16 14:46:57;;;;;;;54.17;25.38;;;;;;;4.09;100.00;95520.44;10468480;28;20046;-72
2020/12/16 14:51:59;;;;;;;49.55;22.73;;;;;;;3.96;100.00;95515.16;10468394;28;20503;-72
2020/12/16 14:56:59;;;;;;;42.05;22.02;;;;;;;4.03;100.00;95518.59;10493506;28;20097;-72
2020/12/16 15:02:02;;;;;;;44.90;22.58;;;;;;;4.08;100.00;95518.78;10502681;28;20487;-73
2020/12/16 15:07:02;;;;;;;40.22;20.35;;;;;;;4.01;100.00;95521.47;10496250;28;20036;-73
2020/12/16 15:12:03;;;;;;;41.95;19.58;;;;;;;4.00;100.00;95522.50;10513492;28;20047;-73
2020/12/16 15:17:05;;;;;;;40.88;19.33;;;;;;;4.00;100.00;95521.69;10515090;28;20048;-73
2020/12/16 15:22:05;;;;;;;40.85;18.88;;;;;;;3.90;100.00;95524.81;10514124;28;20032;-73
2020/12/16 15:27:08;;;;;;;46.65;19.50;;;;;;;3.88;100.00;95525.03;10531250;28;20031;-73
2020/12/16 15:32:11;;;;;;;41.90;19.95;;;;;;;3.69;100.00;95520.59;10528926;28;20036;-72
2020/12/16 15:37:12;;;;;;;47.15;20.38;;;;;;;3.71;100.00;95523.84;10530728;28;20115;-73
2020/12/16 15:42:12;;;;;;;48.40;21.15;;;;;;;3.79;100.00;95528.13;10510839;28;20495;-73
2020/12/16 15:47:12;;;;;;;47.63;20.48;;;;;;;3.67;100.00;95536.75;10530842;28;20038;-73
2020/12/16 15:52:13;;;;;;;45.23;19.93;;;;;;;3.44;100.00;95542.53;10530509;28;20509;-72
2020/12/16 15:57:14;;;;;;;46.17;21.83;;;;;;;3.40;100.00;95542.16;10529211;28;20308;-72
2020/12/16 16:02:14;;;;;;;39.60;18.15;;;;;;;3.56;100.00;95532.09;10523314;28;20032;-72
2020/12/16 16:07:15;;;;;;;45.53;19.98;;;;;;;3.73;100.00;95541.22;10529764;28;20028;-72
2020/12/16 16:12:15;;;;;;;43.83;18.35;;;;;;;3.44;100.00;95544.41;10526897;28;20052;-73
2020/12/16 16:17:16;;;;;;;37.67;15.57;;;;;;;3.27;100.00;95544.84;10530481;28;20060;-72
2020/12/16 16:22:16;;;;;;;36.53;16.83;;;;;;;3.30;100.00;95543.59;10528739;28;20704;-72
2020/12/16 16:27:16;;;;;;;36.10;17.38;;;;;;;3.44;100.00;95542.53;10532190;28;20032;-72
2020/12/16 16:32:17;;;;;;;40.35;18.42;;;;;;;3.54;100.00;95548.22;10500998;28;20037;-72
2020/12/16 16:37:20;;;;;;;40.20;16.40;;;;;;;3.62;100.00;95541.88;10502710;28;20032;-72
2020/12/16 16:42:25;;;;;;;41.20;17.73;;;;;;;3.82;100.00;95548.97;10489373;28;20521;-72
2020/12/16 16:47:25;;;;;;;39.63;18.63;;;;;;;3.88;100.00;95546.28;10491818;28;20043;-72
2020/12/16 16:52:26;;;;;;;34.73;16.93;;;;;;;3.94;100.00;95548.09;10531521;28;20036;-72
2020/12/16 16:57:27;;;;;;;30.85;13.70;;;;;;;3.83;100.00;95556.75;10547191;28;20368;-72
2020/12/16 17:02:28;;;;;;;27.55;14.63;;;;;;;3.92;100.00;95552.81;10531133;28;20032;-73
2020/12/16 17:07:28;;;;;;;27.90;13.70;;;;;;;3.70;100.00;95556.81;10520709;28;20102;-71
2020/12/16 17:12:29;;;;;;;26.23;13.63;;;;;;;3.47;100.00;95581.19;10522483;28;20028;-71
2020/12/16 17:17:37;;;;;;;32.35;14.38;;;;;;;3.68;100.00;95583.56;10502260;28;20052;-72
2020/12/16 17:22:38;;;;;;;41.08;16.85;;;;;;;3.78;100.00;95590.31;10511677;28;20470;-72
2020/12/16 17:27:44;;;;;;;29.48;14.10;;;;;;;3.89;100.00;95581.66;10498930;28;20086;-72
2020/12/16 17:32:46;;;;;;;27.10;13.75;;;;;;;3.82;100.00;95586.19;10497398;28;20040;-72
2020/12/16 17:37:47;;;;;;;30.50;15.82;;;;;;;3.65;100.00;95588.50;10510371;28;20060;-72
2020/12/16 17:42:49;;;;;;;31.25;15.85;;;;;;;3.82;100.00;95591.50;10490480;28;20154;-72
2020/12/16 17:47:50;;;;;;;40.22;18.27;;;;;;;3.93;100.00;95597.03;10514537;28;20063;-73
2020/12/16 17:52:51;;;;;;;35.28;18.13;;;;;;;4.02;100.00;95604.72;10487821;28;20032;-73
2020/12/16 17:57:51;;;;;;;40.42;17.40;;;;;;;3.82;100.00;95604.81;10487693;28;20072;-72
2020/12/16 18:02:52;;;;;;;40.65;18.05;;;;;;;3.93;100.00;95601.50;10469093;28;20478;-74
2020/12/16 18:07:54;;;;;;;41.30;19.63;;;;;;;3.99;100.00;95598.03;10487924;28;20038;-73
2020/12/16 18:12:55;;;;;;;42.60;18.83;;;;;;;3.90;100.00;95601.94;10526238;28;20039;-73
2020/12/16 18:17:59;;;;;;;48.38;21.23;;;;;;;3.91;100.00;95600.91;10522871;28;20049;-73
2020/12/16 18:23:02;;;;;;;53.22;24.60;;;;;;;4.10;100.00;95602.69;10495404;28;20028;-73
2020/12/16 18:28:03;;;;;;;55.80;23.35;;;;;;;4.13;100.00;95603.28;10500191;28;20041;-73
2020/12/16 18:33:06;;;;;;;52.55;25.42;;;;;;;4.05;100.00;95601.69;10489358;28;20090;-73
2020/12/16 18:38:06;;;;;;;58.47;26.98;;;;;;;4.14;100.00;95608.38;10502293;28;20832;-72
2020/12/16 18:43:08;;;;;;;59.83;26.15;;;;;;;4.08;100.00;95618.03;10535760;28;20028;-73
2020/12/16 18:48:08;;;;;;;44.67;22.08;;;;;;;3.98;100.00;95617.66;10512111;28;20039;-73
2020/12/16 18:53:09;;;;;;;46.10;21.95;;;;;;;3.95;100.00;95623.41;10496184;28;20040;-73
2020/12/16 18:58:09;;;;;;;54.03;24.65;;;;;;;4.00;100.00;95622.75;10536069;28;20059;-72
2020/12/16 19:03:11;;;;;;;56.53;23.83;;;;;;;4.10;100.00;95617.81;10521104;28;20132;-73
2020/12/16 19:08:17;;;;;;;46.15;20.55;;;;;;;4.10;100.00;95618.63;10494644;28;20812;-72
2020/12/16 19:13:19;;;;;;;40.92;18.60;;;;;;;4.13;100.00;95608.59;10510173;28;20081;-73
2020/12/16 19:18:20;;;;;;;47.17;19.05;;;;;;;3.97;100.00;95616.00;10507993;28;20049;-72
2020/12/16 19:23:22;;;;;;;43.40;20.13;;;;;;;3.87;100.00;95605.81;10527648;28;20048;-72
2020/12/16 19:28:24;;;;;;;43.40;20.48;;;;;;;3.86;100.00;95606.03;10531278;28;20470;-72
2020/12/16 19:33:24;;;;;;;44.67;17.98;;;;;;;3.90;100.00;95601.94;10532273;28;20531;-72
2020/12/16 19:38:25;;;;;;;33.05;15.40;;;;;;;3.80;100.00;95607.69;10513472;28;20054;-73
2020/12/16 19:43:28;;;;;;;37.85;17.27;;;;;;;3.77;100.00;95608.09;10532135;28;20052;-73
2020/12/16 19:48:30;;;;;;;33.53;16.55;;;;;;;3.61;100.00;95619.97;10519553;28;20483;-73
2020/12/16 19:53:31;;;;;;;32.75;16.77;;;;;;;3.57;100.00;95606.31;10530788;28;20032;-73
2020/12/16 19:58:36;;;;;;;36.38;16.42;;;;;;;3.70;100.00;95617.94;10531350;28;20043;-73
2020/12/16 20:03:37;;;;;;;37.17;17.63;;;;;;;3.71;100.00;95609.75;10530671;28;20050;-71
2020/12/16 20:08:38;;;;;;;44.25;17.80;;;;;;;3.80;100.00;95609.53;10512412;28;20037;-73
2020/12/16 20:14:04;;;;;;;30.48;14.85;;;;;;;3.83;100.00;95598.47;10473349;28;20036;-71
2020/12/16 20:19:04;;;;;;;33.60;14.07;;;;;;;3.59;100.00;95601.59;10491285;28;20507;-74
2020/12/16 20:24:05;;;;;;;35.53;15.30;;;;;;;3.56;100.00;95599.34;10490875;28;20036;-71
2020/12/16 20:29:07;;;;;;;39.63;16.60;;;;;;;3.40;100.00;95597.13;10490980;28;20037;-72
2020/12/16 20:34:09;;;;;;;41.95;17.17;;;;;;;3.16;100.00;95607.34;10491065;28;20037;-72
2020/12/16 20:39:12;;;;;;;36.80;15.70;;;;;;;3.06;100.00;95605.13;10490670;28;20438;-71
2020/12/16 20:44:14;;;;;;;39.65;17.02;;;;;;;3.25;100.00;95600.00;10498831;28;20087;-72
2020/12/16 20:49:14;;;;;;;38.75;17.42;;;;;;;3.17;100.00;95606.34;10512682;28;20025;-72
2020/12/16 20:54:15;;;;;;;33.85;15.68;;;;;;;3.18;100.00;95608.00;10513412;28;20036;-72
2020/12/16 20:59:17;;;;;;;31.02;15.80;;;;;;;3.10;100.00;95605.53;10491174;28;20101;-71
2020/12/16 21:04:17;;;;;;;39.90;16.80;;;;;;;2.93;100.00;95610.44;10503902;28;20423;-72
2020/12/16 21:09:18;;;;;;;35.85;16.42;;;;;;;2.93;100.00;95615.75;10489580;28;20040;-72
2020/12/16 21:14:19;;;;;;;35.15;16.00;;;;;;;2.99;100.00;95616.78;10489010;28;20063;-72
2020/12/16 21:19:19;;;;;;;37.58;18.30;;;;;;;2.89;100.00;95610.00;10519861;28;20483;-72
2020/12/16 21:24:20;;;;;;;42.80;17.47;;;;;;;3.00;100.00;95611.25;10500903;28;20064;-72
2020/12/16 21:29:20;;;;;;;40.85;16.63;;;;;;;3.02;100.00;95616.34;10494114;28;20040;-72
2020/12/16 21:34:20;;;;;;;37.47;17.83;;;;;;;3.14;100.00;95617.38;10527290;28;20024;-71
2020/12/16 21:39:21;;;;;;;35.78;18.92;;;;;;;3.30;100.00;95608.16;10496128;28;20305;-71
2020/12/16 21:44:21;;;;;;;43.78;20.10;;;;;;;3.49;100.00;95621.63;10488282;28;20037;-73
2020/12/16 21:49:22;;;;;;;44.47;19.30;;;;;;;3.61;100.00;95605.88;10516093;28;20408;-71
2020/12/16 21:54:23;;;;;;;42.13;20.15;;;;;;;3.70;100.00;95615.28;10488187;28;20483;-72
2020/12/16 21:59:23;;;;;;;47.08;21.88;;;;;;;3.56;100.00;95601.19;10477913;28;20037;-73
2020/12/16 22:04:24;;;;;;;46.67;21.57;;;;;;;3.47;100.00;95608.56;10488163;28;20044;-73
2020/12/16 22:09:24;;;;;;;38.33;18.42;;;;;;;3.58;100.00;95601.81;10487967;28;20040;-73
2020/12/16 22:14:25;;;;;;;37.90;18.77;;;;;;;3.65;100.00;95607.09;10487822;28;20037;-72
2020/12/16 22:19:25;;;;;;;38.95;17.85;;;;;;;3.69;100.00;95605.66;10459475;28;20040;-79
2020/12/16 22:24:26;;;;;;;39.97;17.08;;;;;;;3.73;100.00;95596.25;10490771;28;20496;-79
2020/12/16 22:29:26;;;;;;;32.83;15.73;;;;;;;3.84;100.00;95602.78;10490544;28;20029;-79
2020/12/16 22:34:27;;;;;;;40.30;16.85;;;;;;;3.76;100.00;95601.94;10490485;28;20635;-79
2020/12/16 22:39:27;;;;;;;34.08;16.10;;;;;;;3.67;100.00;95600.56;10490547;28;20078;-79
2020/12/16 22:44:28;;;;;;;42.95;17.80;;;;;;;3.63;100.00;95603.81;10490511;28;20033;-79
2020/12/16 22:49:28;;;;;;;42.90;18.77;;;;;;;3.65;100.00;95599.94;10488638;28;20033;-79
2020/12/16 22:54:28;;;;;;;38.37;17.70;;;;;;;3.62;100.00;95599.56;10446379;28;20059;-79